Pansey, Alabama
Current Conditions -  °F | °C
As of 3:53 AM on Monday 26 Jan 2015 (Local Time) from KDHN Reporting Station
Clear Clear  
Wind Chill: 41°   Ceiling: Unl
Heat Index: 46°   Visibility: 10mi
Dew Point: 39°   Wind: 9mph
Humidity: 76%   Direction: 270°W
Pressure: 29.89"   Gusts: NA
Location:  31.15°N, 85.18°W
Report Text: KDHN 260953Z AUTO 27008KT 10SM CLR 08/04 A2989 RMK AO2 SLP120 T00780039
Loading
Personal Weather Stations






























Interactive Weather Map New forecast layout! Learn more

10-Day Weather Forecast

Advertisements
Track Severe Weather on mobile